x

North Equatorial Two - 890 Nm East Of Martinique (41041) Wave Buoy

2:50pm - Fri 24th Oct 2014 All times are UTC.

  • Sig Wave height 6.6ft
  • Swell Direction
  • Peak Period 11s
  • Average Period 6s
  • Wind
    16mph, 18mph gusts
  • Sea Temp 82°f
  • Air Temp 81°f
  • Sea Pressure 1013.7mb

More Historic Weather Station data

Upgrade to MSW Pro to gain access to the past 30 days of data for over 8000 Wavebouys and Weather Stations around the globe.

Join Pro

Comparision Forecast

View Surf forecast
   
Fri 10/24 2:50pm 6.5ft 11s 6s 16 18 mph 1013.7mb 82f 81f
1:50pm 7ft 12s 7s 16 20 mph 1014.6mb 82f 81f
12:50pm 6.5ft 12s 6s 18 20 mph 1014.9mb 82f 82f
11:50am 6.5ft 12s 6s 18 20 mph 1014.4mb 82f 82f
10:50am 6.5ft 12s 6s 18 20 mph 1013.4mb 82f 81f
9:50am 7ft 12s 7s 16 20 mph 1012.8mb 82f 80f
8:50am 7.5ft 12s 7s 18 20 mph 1012.3mb 82f 81f
7:50am 7ft 12s 7s 18 20 mph 1012.1mb 82f 81f
6:50am 7ft 12s 7s 18 20 mph 1012mb 82f 81f
5:50am 6ft 13s 7s 18 20 mph 1012.6mb 82f 81f
4:50am 7ft 12s 7s 16 20 mph 1013.2mb 82f 81f
3:50am 7ft 13s 7s 16 18 mph 1013.6mb 82f 81f
2:50am 7ft 13s 7s 16 20 mph 1014.1mb 82f 81f
1:50am 6ft 13s 7s 18 20 mph 1014.2mb 82f 81f
12:50am 7ft 13s 7s 16 20 mph 1014.7mb 82f 81f
Thu 10/23 11:50pm 6ft 13s 7s 16 18 mph 1014.7mb 82f 81f
10:50pm 6.5ft 14s 7s 13 18 mph 1014.5mb 82f 81f
9:50pm 6ft 14s 7s 13 16 mph 1013.5mb 82f 81f
8:50pm 6ft 13s 7s 13 16 mph 1012.9mb 82f 81f
7:50pm 6ft 12s 7s 13 18 mph 1012.8mb 82f 81f
6:50pm 6ft 12s 7s 13 16 mph 1012.5mb 82f 82f
5:50pm 6ft 13s 7s 13 16 mph 1012.7mb 82f 82f
4:50pm 5.5ft 14s 6s 13 16 mph 1013.2mb 82f 81f
3:50pm 6ft 13s 7s 13 16 mph 1014.1mb 82f 81f
2:50pm 6ft 13s 6s 16 18 mph 1014.7mb 82f 82f
1:50pm 5.5ft 12s 6s 16 18 mph 1015.3mb 82f 81f
12:50pm 6ft 12s 6s 16 20 mph 1015.9mb 82f 82f
11:50am 6ft 12s 6s 18 20 mph 1015.1mb 82f 81f
10:50am 6ft 13s 6s 18 20 mph 1014.5mb 82f 81f
9:50am 6ft 10s 6s 18 20 mph 1013.9mb 82f 81f
8:50am 5.5ft 9s 6s 18 20 mph 1013.2mb 82f 81f
7:50am 6ft 11s 6s 18 20 mph 1012.7mb 82f 81f
6:50am 5.5ft 13s 6s 16 18 mph 1012.8mb 82f 81f
5:50am 5.5ft 13s 6s 16 18 mph 1012.9mb 82f 81f
4:50am 6ft 13s 7s 16 18 mph 1013.2mb 82f 81f
3:50am 5.5ft 10s 7s 16 18 mph 1013.9mb 82f 81f
2:50am 5.5ft 13s 7s 13 16 mph 1014.8mb 82f 81f
1:50am 5ft 13s 7s 16 18 mph 1015.4mb 82f 81f
12:50am 5.5ft 13s 7s 16 18 mph 1015.7mb 82f 81f
Wed 10/22 9:50pm 6ft 11s 7s 13 16 mph 1014.9mb 82f 81f
8:50pm 6ft 14s 8s 11 13 mph 1014.4mb 82f 81f
7:50pm 6ft 13s 8s 9 13 mph 1014.1mb 83f 81f
6:50pm 6ft 13s 8s 11 13 mph 1013.6mb 83f 81f
5:50pm 6ft 14s 7s 9 11 mph 1013.6mb 83f 81f
4:50pm 6ft 14s 7s 11 13 mph 1014mb 83f 81f
3:50pm 7ft 14s 8s 11 13 mph 1014.6mb 82f 81f
2:50pm 6ft 14s 8s 11 13 mph 1015.2mb 82f 81f
1:50pm 6ft 13s 8s 11 13 mph 1015.9mb 82f 81f
12:50pm 7ft 13s 8s 11 13 mph 1016.2mb 82f 81f
11:50am 6.5ft 14s 8s 13 16 mph 1015.7mb 82f 81f
10:50am 6.5ft 13s 8s 13 16 mph 1015.2mb 82f 81f
9:50am 7ft 14s 8s 13 16 mph 1014.7mb 82f 81f
7:50am 6ft 14s 8s 13 16 mph 1013.6mb 82f 81f
6:50am 6.5ft 15s 8s 11 13 mph 1013.3mb 82f 81f
5:50am 6ft 13s 7s 11 13 mph 1013.4mb 82f 81f
4:50am 6ft 13s 7s 11 13 mph 1013.8mb 82f 81f
3:50am 6.5ft 13s 7s 11 13 mph 1014.3mb 82f 81f
2:50am 6ft 11s 7s 11 13 mph 1014.8mb 82f 81f
1:50am 6.5ft 13s 7s 13 16 mph 1014.9mb 82f 81f
12:50am 7.5ft 12s 8s 11 16 mph 1015.1mb 82f 81f
Tue 10/21 11:50pm 6.5ft 14s 7s 13 16 mph 1014.9mb 82f 81f
10:50pm 6.5ft 13s 7s 13 16 mph 1014.2mb 82f 81f
9:50pm 7ft 14s 7s 13 16 mph 1013.4mb 82f 81f
8:50pm 7ft 14s 7s 16 18 mph 1012.8mb 82f 81f
7:50pm 6.5ft 14s 7s 13 16 mph 1012.7mb 82f 82f
6:50pm 7ft 14s 7s 13 16 mph 1012.6mb 82f 81f
5:50pm 7ft 13s 7s 16 18 mph 1012mb 82f 82f
4:50pm 7.5ft 14s 7s 16 18 mph 1011.7mb 82f 81f
3:50pm 7ft 14s 7s 16 18 mph 1012.1mb 82f 81f
2:50pm 7.5ft 12s 7s 16 20 mph 1012.8mb 82f 81f
1:50pm 8ft 14s 7s 16 20 mph 1013.5mb 82f 82f
12:50pm 8ft 14s 7s 18 20 mph 1014.1mb 82f 82f
11:50am 8ft 14s 7s 18 22 mph 1014mb 82f 82f
10:50am 8ft 15s 7s 16 18 mph 1013.3mb 82f 81f
9:50am 7ft 14s 7s 16 20 mph 1012.3mb 82f 81f
8:50am 7.5ft 15s 7s 18 20 mph 1011.6mb 82f 81f
7:50am 7.5ft 14s 7s 18 20 mph 1011.4mb 82f 81f
6:50am 7ft 13s 7s 18 20 mph 1011.5mb 82f 81f
5:50am 7ft 15s 7s 18 22 mph 1011.9mb 82f 81f
4:50am 7ft 14s 7s 13 18 mph 1012.7mb 82f 81f
3:50am 7ft 14s 7s 16 18 mph 1013.3mb 82f 82f
2:50am 6.5ft 11s 7s 18 20 mph 1013.7mb 82f 82f
1:50am 7ft 12s 7s 16 18 mph 1013.8mb 82f 81f
12:50am 6ft 12s 7s 16 20 mph 1013.9mb 82f 81f
Mon 10/20 11:50pm 7ft 10s 6s 16 18 mph 1013.7mb 82f 81f
10:50pm 7ft 9s 6s 20 22 mph 1013.1mb 82f 80f
9:50pm 6.5ft 11s 7s 18 22 mph 1012.5mb 82f 82f
8:50pm 7ft 9s 6s 18 20 mph 1012.1mb 82f 82f
7:50pm 6.5ft 7s 6s 16 20 mph 1011.9mb 82f 82f
6:50pm 7ft 12s 7s 16 18 mph 1011.7mb 82f 81f
5:50pm 6ft 11s 6s 13 16 mph 1011.5mb 82f 82f
4:50pm 6ft 13s 6s 13 16 mph 1012mb 82f 82f